x

New London Ledge Ct - Ledge Light Weather Station (ldlc3) Weather Station

4:45pm - Wed 28th Jun 2017 All times are EDT. -4 hours from GMT.

  • Wind
    21mph, 23mph gusts
  • Air Temp 68°f
  • Sea Pressure 1016.9mb
  • New London Ledge Ct - Ledge Light Weather Station
  • New London Ledge Ct - Ledge Light Weather Station

More Historic Weather Station data

Upgrade to MSW Pro to gain access to the past 30 days of data for over 8000 Wavebouys and Weather Stations around the globe.

Join Pro

Comparision Forecast

View Surf forecast
   
Wed 06/28 4:45pm 21 23 mph 1016.9mb 68f
4:30pm 21 23 mph 1017.1mb 68f
4:15pm 20 22 mph 1017.2mb 67f
4:00pm 18 21 mph 1017mb 68f
3:45pm 18 21 mph 1017.5mb 67f
3:30pm 17 21 mph 1017.8mb 67f
3:15pm 22 24 mph 1017.9mb 67f
3:00pm 20 22 mph 1018.1mb 67f
2:45pm 23 25 mph 1018mb 67f
2:30pm 22 25 mph 1017.9mb 67f
2:15pm 22 25 mph 1017.9mb 67f
2:00pm 20 23 mph 1018mb 67f
1:45pm 20 22 mph 1017.9mb 67f
1:30pm 20 22 mph 1017.8mb 67f
1:15pm 21 23 mph 1017.6mb 66f
1:00pm 22 24 mph 1017.6mb 66f
12:45pm 20 24 mph 1017.7mb 66f
12:30pm 20 22 mph 1017.6mb 66f
12:15pm 20 23 mph 1017.5mb 65f
12:00pm 18 23 mph 1017.5mb 66f
11:45am 20 24 mph 1017.4mb 67f
11:30am 16 18 mph 1017.5mb 70f
11:15am 8 14 mph 1017.5mb 71f
11:00am 9 10 mph 1017.5mb 69f
10:45am 5 10 mph 1017.6mb 70f
10:30am 13 17 mph 1017.4mb 70f
10:15am 14 17 mph 1017.5mb 69f
10:00am 18 22 mph 1017.5mb 68f
9:45am 10 14 mph 1017.5mb 68f
9:30am 10 15 mph 1017.5mb 67f
9:15am 11 15 mph 1017.5mb 67f
9:00am 14 16 mph 1017.6mb 66f
8:45am 14 17 mph 1017.6mb 66f
8:30am 8 11 mph 1017.7mb 65f
8:15am 10 13 mph 1017.7mb 65f
8:00am 8 10 mph 1017.5mb 64f
7:45am 7 9 mph 1017.5mb 62f
7:30am 8 10 mph 1017.5mb 63f
7:15am 3 6 mph 1017.3mb 63f
7:00am 2 3 mph 1017.4mb 63f
6:45am 2 5 mph 1017.3mb 61f
6:30am 6 7 mph 1017.1mb 59f
6:15am 5 6 mph 1017mb 59f
6:00am 5 6 mph 1016.8mb 60f
5:45am 5 5 mph 1016.7mb 60f
5:30am 5 6 mph 1016.7mb 60f
5:15am 3 5 mph 1016.5mb 60f
5:00am 6 7 mph 1016.5mb 60f
4:45am 6 7 mph 1016.4mb 60f
4:30am 5 5 mph 1016.3mb 60f
4:15am 3 5 mph 1016mb 60f
4:00am 3 5 mph 1015.9mb 60f
3:45am 5 5 mph 1015.8mb 60f
3:30am 3 5 mph 1015.7mb 60f
3:15am 2 3 mph 1015.4mb 60f
3:00am 3 3 mph 1015.4mb 61f
2:45am 3 5 mph 1015.3mb 61f
2:30am 5 6 mph 1015.1mb 61f
2:15am 5 6 mph 1015.2mb 62f
2:00am 5 7 mph 1015.1mb 62f
1:45am 2 5 mph 1015.3mb 62f
1:30am 2 3 mph 1015.3mb 63f
1:15am  -  1 mph 1015.4mb 62f
1:00am 2 2 mph 1015.3mb 63f
Tue 06/27 7:45pm 16 18 mph 1012.5mb 68f
7:15pm 17 20 mph 1011.9mb 67f
7:00pm 17 18 mph 1011.9mb 68f
6:45pm 20 21 mph 1012mb 69f
6:30pm 17 20 mph 1012.3mb 69f
6:15pm 13 14 mph 1012.5mb 69f
6:00pm 9 11 mph 1012.7mb 68f
5:45pm 7 8 mph 1012.7mb 67f
5:30pm 11 11 mph 1012.8mb 67f
5:15pm 14 15 mph 1012.7mb 67f
5:00pm 17 20 mph 1012.5mb 66f
4:45pm 16 18 mph 1012.6mb 66f
4:30pm 18 20 mph 1012.9mb 66f
4:15pm 20 22 mph 1013.1mb 66f
4:00pm 18 20 mph 1013.1mb 66f
3:45pm 20 22 mph 1013.2mb 66f
3:30pm 15 17 mph 1013.4mb 66f
3:15pm 16 18 mph 1013.4mb 66f
3:00pm 16 17 mph 1013.6mb 66f
2:45pm 15 16 mph 1013.9mb 66f
2:30pm 15 16 mph 1014.2mb 66f
2:15pm 13 15 mph 1014.2mb 66f
2:00pm 11 13 mph 1014.6mb 65f
1:45pm 13 14 mph 1014.7mb 65f
1:30pm 16 18 mph 1014.7mb 65f
1:15pm 15 16 mph 1014.6mb 65f
1:00pm 13 15 mph 1015mb 64f
12:45pm 7 8 mph 1015.3mb 64f
12:30pm 13 14 mph 1015mb 64f
12:15pm 13 14 mph 1014.8mb 64f
12:00pm 16 17 mph 1014.5mb 64f
11:45am 11 13 mph 1015.3mb 63f
11:30am 9 10 mph 1015.4mb 64f
11:15am 15 17 mph 1014.8mb 64f
11:00am 14 15 mph 1014.8mb 65f
10:45am 10 13 mph 1015mb 64f
10:30am 14 16 mph 1015mb 64f
10:15am 5 7 mph 1016mb 63f
10:00am 9 37 mph 1016.3mb 65f
9:45am 14 16 mph 1016.9mb 66f
9:30am 5 8 mph 1015.9mb 66f
9:15am 2 6 mph 1015.9mb 66f
9:00am 1 2 mph 1016.5mb 66f
8:45am 2 3 mph 1016.3mb 66f
8:30am 8 13 mph 1016.1mb 65f
8:15am 6 8 mph 1015.9mb 64f
8:00am 6 7 mph 1015.7mb 63f
7:45am 5 5 mph 1015.9mb 63f
7:30am 3 5 mph 1015.9mb 63f
7:15am 5 6 mph 1015.8mb 63f
7:00am 3 3 mph 1015.7mb 63f
6:45am 3 3 mph 1015.7mb 63f
6:30am 3 5 mph 1015.6mb 64f
6:15am 3 5 mph 1015.5mb 63f
6:00am 6 6 mph 1015.3mb 63f
5:45am 3 5 mph 1015.5mb 63f
5:30am 5 6 mph 1015.5mb 63f
5:15am 6 7 mph 1015.5mb 64f
5:00am 7 9 mph 1015.3mb 64f
4:45am 10 13 mph 1015.1mb 64f
4:30am 11 15 mph 1015mb 64f
4:15am 2 3 mph 1014.8mb 65f
4:00am 3 5 mph 1014.9mb 65f
3:45am 6 6 mph 1014.9mb 65f
3:30am 5 6 mph 1015.2mb 65f
3:15am 6 6 mph 1015.1mb 65f
3:00am 5 6 mph 1015.1mb 64f
2:45am 7 7 mph 1014.9mb 66f
2:30am 7 8 mph 1014.8mb 65f
2:15am 8 8 mph 1015mb 66f
2:00am 8 9 mph 1014.9mb 66f
1:45am 8 8 mph 1014.8mb 66f
1:30am 6 8 mph 1014.9mb 66f
1:15am 6 6 mph 1015.1mb 67f
1:00am 7 8 mph 1015.3mb 67f
Mon 06/26 7:45pm 17 18 mph 1014.7mb 69f
7:15pm 18 21 mph 1014.4mb 69f
7:00pm 18 21 mph 1014.4mb 70f
6:45pm 17 20 mph 1014.5mb 70f
6:30pm 17 20 mph 1014.4mb 70f
6:15pm 16 18 mph 1014.3mb 70f
6:00pm 16 18 mph 1014.2mb 70f
5:45pm 16 18 mph 1014.2mb 70f
5:30pm 10 14 mph 1014.5mb 69f
5:15pm 13 16 mph 1014.7mb 69f
5:00pm 15 16 mph 1014.6mb 69f
4:45pm 14 16 mph 1014.6mb 68f
4:30pm 13 14 mph 1014.6mb 69f
4:15pm 15 16 mph 1014.7mb 69f
4:00pm 15 16 mph 1014.6mb 69f
3:45pm 16 17 mph 1014.7mb 69f
3:30pm 16 18 mph 1014.7mb 69f
3:15pm 16 18 mph 1015mb 68f
3:00pm 14 15 mph 1015.2mb 68f
2:45pm 13 15 mph 1015.2mb 68f
2:30pm 9 9 mph 1015.3mb 67f
2:15pm 10 13 mph 1015.3mb 67f
2:00pm 13 14 mph 1015.4mb 67f
1:45pm 15 17 mph 1015.4mb 68f
1:30pm 13 15 mph 1015.4mb 67f
1:15pm 14 15 mph 1015.4mb 67f
1:00pm 11 13 mph 1015.6mb 67f
12:45pm 14 15 mph 1015.8mb 67f
12:30pm 14 15 mph 1015.8mb 67f
12:15pm 13 15 mph 1015.9mb 67f
12:00pm 14 15 mph 1015.8mb 67f
11:45am 15 16 mph 1015.8mb 67f
11:30am 14 16 mph 1016mb 67f
11:15am 14 15 mph 1016mb 67f
11:00am 13 14 mph 1015.9mb 67f
10:45am 14 15 mph 1015.9mb 67f
10:30am 14 15 mph 1015.8mb 67f
10:15am 11 11 mph 1015.8mb 67f
10:00am 11 13 mph 1015.8mb 67f
9:45am 11 13 mph 1015.9mb 67f
9:30am 10 11 mph 1015.8mb 67f
9:15am 9 10 mph 1015.9mb 67f
9:00am 7 9 mph 1015.9mb 67f
8:45am 8 9 mph 1015.8mb 66f
8:30am 7 10 mph 1015.9mb 67f
8:15am 5 6 mph 1015.7mb 65f
8:00am 6 7 mph 1015.8mb 65f
7:45am 6 7 mph 1015.9mb 65f
7:30am 8 9 mph 1015.9mb 64f
7:15am 8 9 mph 1015.8mb 64f
7:00am 8 9 mph 1015.7mb 63f
6:45am 7 8 mph 1015.5mb 63f
6:30am 5 6 mph 1015.4mb 62f
6:15am 5 5 mph 1015.3mb 63f
6:00am 2 3 mph 1015.1mb 63f
5:45am 3 5 mph 1014.9mb 63f
5:30am 7 8 mph 1014.7mb 63f
5:15am 7 7 mph 1014.6mb 63f
5:00am 6 6 mph 1014.3mb 63f
4:45am 3 5 mph 1014.2mb 63f
4:30am 5 6 mph 1014mb 64f
4:15am 2 5 mph 1013.9mb 65f
4:00am 7 9 mph 1013.6mb 66f
3:45am 5 7 mph 1013.6mb 66f
3:30am 11 13 mph 1013.3mb 66f
3:15am 13 15 mph 1013.5mb 66f
3:00am 13 14 mph 1013.6mb 66f
2:45am 13 15 mph 1013.9mb 66f
2:30am 18 23 mph 1013.7mb 67f
2:15am 16 20 mph 1013.8mb 67f
2:00am 13 17 mph 1013.9mb 68f
1:45am 14 16 mph 1013.8mb 68f
1:30am 11 13 mph 1013.6mb 68f
1:15am 10 13 mph 1013.5mb 68f
1:00am 9 13 mph 1013.4mb 68f
Sun 06/25 7:45pm 7 9 mph 1013.1mb 69f
7:15pm 8 9 mph 1013mb 69f
7:00pm 15 16 mph 1012.7mb 70f
6:45pm 16 18 mph 1012.7mb 70f
6:30pm 15 16 mph 1012.6mb 70f
6:15pm 14 16 mph 1012.5mb 70f
6:00pm 15 16 mph 1012.5mb 69f
5:45pm 11 14 mph 1012.6mb 69f
5:30pm 14 17 mph 1012.5mb 70f
5:15pm 11 13 mph 1012.8mb 69f
5:00pm 16 17 mph 1012.7mb 70f
4:45pm 15 16 mph 1012.7mb 70f
4:30pm 17 18 mph 1012.6mb 70f
4:15pm 16 17 mph 1012.7mb 71f
4:00pm 15 16 mph 1012.7mb 70f
3:45pm 16 17 mph 1012.7mb 69f
3:30pm 13 14 mph 1012.9mb 68f
3:15pm 14 15 mph 1013mb 69f
3:00pm 11 14 mph 1013.1mb 71f
2:45pm 14 14 mph 1013.3mb 70f
2:30pm 10 11 mph 1013.5mb 70f
2:15pm 10 10 mph 1013.6mb 70f
2:00pm 14 14 mph 1013.6mb 69f
1:45pm 11 13 mph 1013.7mb 69f
1:30pm 14 15 mph 1013.9mb 68f
1:15pm 13 13 mph 1014.1mb 67f
1:00pm 14 14 mph 1014.1mb 67f
12:45pm 13 14 mph 1014.3mb 68f
12:30pm 13 15 mph 1014.2mb 68f
12:15pm 15 18 mph 1014.2mb 67f
12:00pm 9 11 mph 1014.5mb 68f
11:45am 15 16 mph 1014.3mb 68f
11:30am 13 14 mph 1014.5mb 68f
11:15am 14 15 mph 1014.4mb 68f
11:00am 15 15 mph 1014.3mb 68f
10:45am 14 15 mph 1014.2mb 67f
10:30am 13 14 mph 1014.2mb 67f
10:15am 11 13 mph 1014.4mb 69f
10:00am 11 13 mph 1014.5mb 69f
9:45am 11 13 mph 1014.7mb 69f
9:30am 10 11 mph 1014.7mb 70f
9:15am 9 10 mph 1014.7mb 70f
9:00am 8 9 mph 1014.8mb 70f
8:45am 7 8 mph 1014.7mb 70f
8:30am 6 8 mph 1014.7mb 70f
8:15am 3 5 mph 1014.6mb 69f
8:00am 2 3 mph 1014.7mb 71f
7:45am 2 3 mph 1014.7mb 69f
7:30am 3 3 mph 1014.6mb 67f
7:15am 3 5 mph 1014.3mb 67f
7:00am 2 3 mph 1014.2mb 68f
6:45am 1 2 mph 1014.1mb 70f
6:30am 2 3 mph 1014mb 69f
6:15am 3 5 mph 1013.7mb 68f
6:00am 5 6 mph 1013.5mb 67f
5:45am 5 7 mph 1013.3mb 66f
5:30am 5 7 mph 1013.2mb 65f
5:15am 5 7 mph 1013.1mb 65f
5:00am 7 8 mph 1012.9mb 65f
4:45am 8 9 mph 1012.7mb 66f
4:30am 8 8 mph 1012.5mb 66f
4:15am 6 7 mph 1012.4mb 67f
4:00am 6 7 mph 1012.3mb 68f
3:45am 6 7 mph 1012mb 67f
3:30am 3 3 mph 1011.9mb 68f
3:15am 2 3 mph 1012mb 68f
3:00am 3 5 mph 1011.9mb 70f
2:45am 7 8 mph 1011.8mb 70f
2:30am 9 10 mph 1011.8mb 71f
2:15am 8 9 mph 1012mb 70f
2:00am 10 11 mph 1011.9mb 71f
1:45am 9 10 mph 1011.8mb 71f
1:30am 14 18 mph 1011.5mb 72f
1:15am 14 16 mph 1011.5mb 71f
1:00am 11 14 mph 1011.5mb 72f